createdAt,value
2023-03-02T00:00:38.493Z,12.63
2023-03-02T00:03:06.098Z,12.07
2023-03-02T00:05:33.231Z,13.23
2023-03-02T00:08:00.125Z,11.83
2023-03-02T00:10:26.681Z,11.97
2023-03-02T00:12:53.219Z,13.30
2023-03-02T00:15:19.792Z,12.67
2023-03-02T00:17:46.318Z,13.10
2023-03-02T00:20:13.033Z,12.47
2023-03-02T00:22:40.444Z,12.33
2023-03-02T00:25:07.643Z,12.40
2023-03-02T00:27:34.195Z,12.50
2023-03-02T00:30:00.837Z,12.10
2023-03-02T00:32:27.368Z,11.60
2023-03-02T00:34:54.001Z,12.50
2023-03-02T00:37:20.595Z,12.90
2023-03-02T00:39:47.169Z,12.25
2023-03-02T00:42:14.028Z,13.27
2023-03-02T00:44:40.638Z,12.70
2023-03-02T00:47:07.317Z,12.63
2023-03-02T00:49:34.857Z,13.67
2023-03-02T00:52:01.383Z,12.47
2023-03-02T00:54:28.254Z,12.13
2023-03-02T00:56:54.773Z,12.27
2023-03-02T00:59:27.828Z,12.63
2023-03-02T01:02:04.599Z,12.47
2023-03-02T01:04:36.360Z,13.10
2023-03-02T01:07:04.953Z,12.23
2023-03-02T01:09:31.713Z,13.27
2023-03-02T01:11:58.933Z,12.57
2023-03-02T01:14:25.997Z,11.63
2023-03-02T01:16:52.718Z,12.67
2023-03-02T01:19:19.251Z,12.70
2023-03-02T01:21:46.142Z,12.27
2023-03-02T01:24:12.912Z,12.10
2023-03-02T01:26:39.462Z,12.97
2023-03-02T01:29:05.984Z,11.83
2023-03-02T01:31:32.516Z,12.37
2023-03-02T01:33:59.105Z,13.17
2023-03-02T01:36:25.624Z,12.00
2023-03-02T01:38:54.194Z,12.63
2023-03-02T01:41:20.854Z,13.00
2023-03-02T01:43:47.397Z,12.37
2023-03-02T01:46:19.890Z,13.00
2023-03-02T01:49:01.231Z,13.17
2023-03-02T01:51:40.684Z,12.93
2023-03-02T01:54:10.211Z,13.10
2023-03-02T01:56:38.695Z,13.30
2023-03-02T01:59:07.805Z,13.43
2023-03-02T02:01:35.570Z,14.13
2023-03-02T02:04:02.896Z,14.50
2023-03-02T02:06:35.119Z,13.67
2023-03-02T02:09:03.612Z,14.00
2023-03-02T02:11:30.528Z,12.67
2023-03-02T02:13:58.680Z,13.40
2023-03-02T02:16:26.254Z,16.20
2023-03-02T02:18:53.055Z,14.60
2023-03-02T02:21:20.823Z,14.97
2023-03-02T02:23:53.538Z,14.77
2023-03-02T02:26:32.209Z,14.53
2023-03-02T02:29:04.461Z,14.57
2023-03-02T02:31:35.335Z,14.13
2023-03-02T02:34:22.689Z,13.27
2023-03-02T02:36:54.091Z,14.07
2023-03-02T02:39:22.112Z,14.43
2023-03-02T02:41:49.622Z,14.03
2023-03-02T02:44:17.350Z,14.37
2023-03-02T02:46:44.870Z,14.97
2023-03-02T02:49:21.114Z,13.80
2023-03-02T02:51:47.661Z,13.87
2023-03-02T02:54:17.355Z,14.30
2023-03-02T02:56:46.670Z,13.97
2023-03-02T02:59:21.070Z,14.60
2023-03-02T03:01:48.420Z,14.20
2023-03-02T03:04:18.756Z,15.07
2023-03-02T03:06:49.990Z,14.43
2023-03-02T03:09:16.728Z,13.90
2023-03-02T03:11:57.728Z,13.93
2023-03-02T03:14:27.892Z,13.60
2023-03-02T03:16:55.072Z,14.37
2023-03-02T03:19:23.648Z,14.47
2023-03-02T03:21:52.436Z,14.97
2023-03-02T03:24:19.988Z,16.67
2023-03-02T03:26:46.868Z,15.33
2023-03-02T03:29:15.106Z,14.53
2023-03-02T03:31:41.754Z,14.90
2023-03-02T03:34:09.343Z,15.10
2023-03-02T03:36:36.787Z,15.60
2023-03-02T03:39:05.613Z,14.50
2023-03-02T03:41:33.454Z,14.57
2023-03-02T03:44:00.668Z,14.97
2023-03-02T03:46:29.848Z,16.23
2023-03-02T03:48:57.138Z,15.37
2023-03-02T03:51:24.209Z,15.20
2023-03-02T03:53:59.792Z,16.00
2023-03-02T03:56:33.457Z,18.93
2023-03-02T03:59:07.149Z,15.33
2023-03-02T04:01:48.993Z,15.43
2023-03-02T04:04:18.833Z,15.70
2023-03-02T04:06:45.527Z,14.93
2023-03-02T04:09:12.383Z,15.50
2023-03-02T04:11:40.768Z,15.00
2023-03-02T04:14:07.965Z,15.27
2023-03-02T04:16:35.001Z,15.00
2023-03-02T04:19:01.900Z,15.10
2023-03-02T04:21:28.881Z,15.23
2023-03-02T04:23:55.621Z,14.87
2023-03-02T04:26:23.230Z,15.97
2023-03-02T04:28:50.964Z,15.20
2023-03-02T04:31:18.933Z,15.20
2023-03-02T04:33:45.677Z,15.30
2023-03-02T04:36:12.439Z,15.53
2023-03-02T04:38:38.977Z,15.90
2023-03-02T04:41:06.441Z,15.60
2023-03-02T04:43:32.956Z,15.73
2023-03-02T04:45:59.594Z,16.40
2023-03-02T04:48:26.157Z,15.67
2023-03-02T04:50:52.756Z,15.57
2023-03-02T04:53:19.240Z,16.30
2023-03-02T04:55:45.873Z,16.20
2023-03-02T04:58:12.401Z,15.73
2023-03-02T05:00:39.010Z,15.53
2023-03-02T05:03:05.669Z,16.47
2023-03-02T05:05:32.878Z,16.43
2023-03-02T05:08:00.027Z,16.00
2023-03-02T05:10:27.776Z,15.80
2023-03-02T05:13:05.170Z,15.50
2023-03-02T05:15:35.702Z,16.93
2023-03-02T05:18:02.780Z,16.40
2023-03-02T05:20:30.444Z,17.20
2023-03-02T05:23:07.893Z,16.20
2023-03-02T05:25:35.452Z,15.83
2023-03-02T05:28:02.545Z,15.73
2023-03-02T05:30:29.143Z,16.47
2023-03-02T05:32:55.687Z,16.87
2023-03-02T05:35:22.488Z,16.77
2023-03-02T05:37:49.205Z,16.70
2023-03-02T05:40:17.500Z,15.70
2023-03-02T05:42:44.241Z,16.73
2023-03-02T05:45:17.922Z,16.30
2023-03-02T05:47:44.485Z,16.33
2023-03-02T05:50:11.293Z,21.70
2023-03-02T05:52:37.779Z,20.00
2023-03-02T05:55:04.416Z,18.20
2023-03-02T05:57:30.978Z,17.93
2023-03-02T05:59:57.497Z,19.37
2023-03-02T06:02:24.058Z,24.02
2023-03-02T06:04:50.635Z,20.33
2023-03-02T06:07:17.152Z,19.77
2023-03-02T06:09:43.784Z,23.50
2023-03-02T06:12:10.462Z,30.73
2023-03-02T06:14:37.098Z,27.70
2023-03-02T06:17:03.799Z,23.23
2023-03-02T06:19:30.302Z,23.20
2023-03-02T06:21:56.859Z,23.47
2023-03-02T06:24:23.346Z,23.63
2023-03-02T06:26:50.101Z,23.27
2023-03-02T06:29:16.592Z,24.27
2023-03-02T06:31:43.192Z,23.07
2023-03-02T06:34:09.733Z,22.57
2023-03-02T06:36:38.736Z,22.97
2023-03-02T06:39:05.965Z,23.53
2023-03-02T06:41:33.838Z,21.23
2023-03-02T06:44:01.144Z,21.30
2023-03-02T06:46:27.663Z,19.57
2023-03-02T06:48:54.221Z,19.53
2023-03-02T06:51:20.779Z,18.30
2023-03-02T06:53:47.423Z,19.53
2023-03-02T06:56:14.026Z,18.40
2023-03-02T06:58:40.592Z,19.53
2023-03-02T07:01:07.912Z,18.93
2023-03-02T07:03:36.160Z,19.23
2023-03-02T07:06:04.123Z,19.23
2023-03-02T07:08:30.744Z,18.43
2023-03-02T07:10:57.308Z,19.27
2023-03-02T07:13:24.170Z,19.63
2023-03-02T07:15:50.760Z,20.33
2023-03-02T07:18:17.315Z,20.67
2023-03-02T07:20:43.849Z,20.50
2023-03-02T07:23:10.398Z,20.30
2023-03-02T07:25:37.077Z,21.23
2023-03-02T07:28:03.696Z,20.77
2023-03-02T07:30:30.304Z,21.03
2023-03-02T07:32:57.623Z,20.93
2023-03-02T07:35:24.172Z,20.93
2023-03-02T07:37:51.711Z,21.87
2023-03-02T07:40:18.596Z,21.63
2023-03-02T07:42:45.103Z,22.43
2023-03-02T07:45:13.905Z,21.37
2023-03-02T07:47:40.412Z,21.70
2023-03-02T07:50:07.271Z,21.90
2023-03-02T07:52:34.398Z,22.37
2023-03-02T07:55:00.900Z,22.80
2023-03-02T07:57:27.447Z,22.97
2023-03-02T07:59:53.947Z,21.67
2023-03-02T08:02:20.622Z,23.80
2023-03-02T08:04:47.302Z,22.10
2023-03-02T08:07:13.805Z,22.53
2023-03-02T08:09:40.445Z,24.03
2023-03-02T08:12:07.040Z,24.90
2023-03-02T08:14:33.579Z,24.77
2023-03-02T08:17:00.171Z,26.90
2023-03-02T08:19:26.711Z,27.43
2023-03-02T08:21:53.258Z,28.37
2023-03-02T08:24:19.807Z,26.00
2023-03-02T08:26:46.334Z,25.20
2023-03-02T08:29:12.822Z,25.17
2023-03-02T08:31:39.468Z,26.70
2023-03-02T08:34:06.091Z,25.47
2023-03-02T08:36:32.844Z,25.17
2023-03-02T08:38:59.552Z,25.60
2023-03-02T08:41:26.252Z,24.20
2023-03-02T08:43:55.392Z,24.63
2023-03-02T08:46:22.061Z,22.33
2023-03-02T08:48:50.676Z,21.10
2023-03-02T08:51:22.073Z,21.90
2023-03-02T08:53:50.519Z,20.57
2023-03-02T08:56:21.784Z,20.80
2023-03-02T08:58:48.899Z,22.00
2023-03-02T09:01:26.368Z,20.33
2023-03-02T09:03:53.015Z,21.53
2023-03-02T09:06:19.580Z,22.30
2023-03-02T09:08:46.134Z,20.83
2023-03-02T09:11:12.671Z,20.90
2023-03-02T09:13:39.181Z,20.57
2023-03-02T09:16:06.379Z,21.03
2023-03-02T09:18:33.013Z,19.67
2023-03-02T09:20:59.650Z,19.70
2023-03-02T09:23:26.529Z,20.13
2023-03-02T09:25:53.328Z,19.80
2023-03-02T09:28:21.767Z,19.17
2023-03-02T09:30:52.351Z,18.37
2023-03-02T09:33:19.153Z,18.77
2023-03-02T09:35:47.528Z,18.13
2023-03-02T09:38:17.092Z,18.63
2023-03-02T09:40:49.825Z,18.00
2023-03-02T09:43:22.678Z,18.07
2023-03-02T09:45:56.773Z,18.70
2023-03-02T09:48:28.793Z,17.20
2023-03-02T09:51:12.553Z,16.40
2023-03-02T09:53:54.177Z,16.33
2023-03-02T09:56:21.090Z,16.03
2023-03-02T09:59:00.940Z,16.57
2023-03-02T10:01:34.634Z,16.13
2023-03-02T10:04:19.777Z,15.50
2023-03-02T10:06:46.686Z,16.60
2023-03-02T10:09:13.322Z,16.87
2023-03-02T10:11:49.178Z,15.90
2023-03-02T10:14:23.472Z,15.70
2023-03-02T10:16:55.357Z,15.80
2023-03-02T10:19:25.215Z,15.20
2023-03-02T10:21:58.053Z,16.97
2023-03-02T10:24:33.620Z,15.50
2023-03-02T10:27:20.646Z,16.00
2023-03-02T10:30:02.708Z,15.47
2023-03-02T10:32:49.545Z,15.83
2023-03-02T10:35:23.756Z,15.13
2023-03-02T10:37:51.333Z,15.10
2023-03-02T10:40:30.206Z,15.63
2023-03-02T10:42:57.691Z,15.47
2023-03-02T10:45:27.146Z,14.77
2023-03-02T10:48:10.274Z,16.33
2023-03-02T10:50:37.198Z,15.93
2023-03-02T10:53:06.490Z,14.83
2023-03-02T10:55:33.684Z,14.43
2023-03-02T10:58:02.068Z,15.17
2023-03-02T11:00:29.626Z,15.07
2023-03-02T11:03:00.847Z,15.90
2023-03-02T11:05:41.418Z,14.97
2023-03-02T11:08:16.340Z,15.70
2023-03-02T11:11:01.157Z,14.73
2023-03-02T11:13:38.135Z,14.83
2023-03-02T11:16:21.905Z,20.70
2023-03-02T11:18:51.207Z,16.03
2023-03-02T11:21:35.805Z,15.70
2023-03-02T11:24:02.456Z,14.70
2023-03-02T11:26:50.737Z,14.83
2023-03-02T11:29:17.384Z,16.80
2023-03-02T11:31:55.778Z,16.27
2023-03-02T11:34:40.595Z,16.77
2023-03-02T11:37:23.479Z,15.57
2023-03-02T11:39:57.143Z,16.07
2023-03-02T11:42:30.693Z,17.23
2023-03-02T11:44:58.440Z,15.53
2023-03-02T11:47:25.265Z,15.53
2023-03-02T11:49:56.073Z,15.33
2023-03-02T11:52:24.790Z,16.37
2023-03-02T11:55:04.665Z,15.60
2023-03-02T11:57:33.396Z,15.70
2023-03-02T12:00:00.442Z,15.23
2023-03-02T12:02:27.407Z,16.60
2023-03-02T12:05:06.158Z,15.03
2023-03-02T12:07:32.784Z,15.60
2023-03-02T12:10:06.956Z,15.07
2023-03-02T12:12:33.454Z,15.10
2023-03-02T12:15:00.440Z,15.90
2023-03-02T12:17:27.067Z,14.30
2023-03-02T12:19:55.336Z,14.77
2023-03-02T12:22:31.723Z,15.33
2023-03-02T12:25:07.642Z,14.90
2023-03-02T12:27:35.788Z,14.70
2023-03-02T12:30:08.599Z,13.67
2023-03-02T12:32:35.302Z,14.00
2023-03-02T12:35:08.064Z,14.23
2023-03-02T12:37:48.571Z,14.23
2023-03-02T12:40:15.118Z,13.63
2023-03-02T12:43:00.412Z,14.07
2023-03-02T12:45:45.105Z,13.70
2023-03-02T12:48:30.398Z,15.07
2023-03-02T12:51:00.037Z,13.63
2023-03-02T12:53:26.602Z,13.47
2023-03-02T12:55:53.164Z,13.57
2023-03-02T12:58:24.198Z,40.23
2023-03-02T13:00:55.825Z,14.57
2023-03-02T13:03:22.699Z,24.23
2023-03-02T13:05:49.342Z,14.67
2023-03-02T13:08:28.678Z,13.57
2023-03-02T13:10:56.790Z,21.77
2023-03-02T13:13:25.483Z,12.60
2023-03-02T13:15:59.272Z,13.60
2023-03-02T13:18:31.780Z,13.47
2023-03-02T13:20:59.182Z,14.20
2023-03-02T13:23:26.316Z,12.80
2023-03-02T13:25:54.208Z,12.80
2023-03-02T13:28:27.656Z,13.23
2023-03-02T13:31:02.565Z,11.70
2023-03-02T13:33:30.629Z,13.37
2023-03-02T13:35:57.307Z,12.70
2023-03-02T13:38:26.558Z,12.83
2023-03-02T13:40:53.952Z,14.63
2023-03-02T13:43:26.479Z,13.63
2023-03-02T13:46:13.324Z,13.50
2023-03-02T13:48:39.866Z,12.60
2023-03-02T13:51:16.549Z,13.50
2023-03-02T13:53:45.718Z,11.67
2023-03-02T13:56:15.088Z,14.37
2023-03-02T13:58:41.861Z,13.40
2023-03-02T14:01:08.438Z,13.37
2023-03-02T14:03:35.006Z,12.90
2023-03-02T14:06:01.541Z,12.87
2023-03-02T14:08:28.153Z,12.60
2023-03-02T14:10:57.288Z,13.03
2023-03-02T14:13:25.408Z,11.27
2023-03-02T14:15:53.003Z,11.57
2023-03-02T14:18:25.661Z,13.87
2023-03-02T14:20:52.262Z,23.63
2023-03-02T14:23:18.887Z,11.73
2023-03-02T14:25:45.498Z,11.10
2023-03-02T14:28:13.503Z,12.33
2023-03-02T14:30:41.600Z,17.50
2023-03-02T14:33:14.393Z,15.17
2023-03-02T14:35:41.358Z,20.40
2023-03-02T14:38:09.220Z,12.73
2023-03-02T14:40:36.545Z,10.97
2023-03-02T14:43:03.115Z,10.70
2023-03-02T14:45:30.885Z,10.50
2023-03-02T14:47:57.590Z,9.67
2023-03-02T14:50:24.084Z,10.97
2023-03-02T14:52:54.854Z,13.47
2023-03-02T14:55:25.848Z,10.40
2023-03-02T14:58:10.526Z,13.57
2023-03-02T15:00:37.119Z,10.17
2023-03-02T15:03:03.710Z,10.30
2023-03-02T15:05:30.355Z,11.37
2023-03-02T15:07:58.677Z,12.27
2023-03-02T15:10:25.537Z,14.23
2023-03-02T15:12:52.049Z,13.73
2023-03-02T15:15:18.968Z,10.83
2023-03-02T15:17:45.510Z,10.37
2023-03-02T15:20:16.460Z,12.10
2023-03-02T15:22:43.405Z,11.77
2023-03-02T15:25:10.134Z,11.47
2023-03-02T15:27:36.640Z,10.83
2023-03-02T15:30:03.833Z,11.43
2023-03-02T15:32:30.448Z,11.23
2023-03-02T15:34:56.953Z,12.40
2023-03-02T15:37:23.499Z,11.10
2023-03-02T15:39:54.261Z,11.20
2023-03-02T15:42:20.756Z,10.67
2023-03-02T15:44:47.351Z,11.40
2023-03-02T15:47:13.891Z,11.40
2023-03-02T15:49:40.418Z,11.30
2023-03-02T15:52:06.987Z,10.93
2023-03-02T15:54:33.600Z,10.77
2023-03-02T15:57:00.069Z,10.90
2023-03-02T15:59:27.722Z,10.57
2023-03-02T16:01:59.141Z,10.67
2023-03-02T16:04:26.853Z,11.63
2023-03-02T16:06:54.900Z,11.07
2023-03-02T16:09:21.930Z,10.73
2023-03-02T16:11:51.912Z,10.90
2023-03-02T16:14:18.445Z,11.73
2023-03-02T16:16:45.715Z,11.37
2023-03-02T16:19:13.277Z,14.47
2023-03-02T16:21:39.869Z,15.33
2023-03-02T16:24:06.810Z,15.07
2023-03-02T16:26:34.493Z,13.63
2023-03-02T16:29:01.493Z,14.57
2023-03-02T16:31:28.485Z,13.80
2023-03-02T16:33:55.864Z,13.63
2023-03-02T16:36:22.417Z,14.47
2023-03-02T16:38:49.026Z,15.10
2023-03-02T16:41:17.629Z,16.03
2023-03-02T16:43:48.484Z,19.03
2023-03-02T16:46:15.727Z,20.90
2023-03-02T16:48:42.879Z,19.30
2023-03-02T16:51:09.844Z,20.30
2023-03-02T16:53:36.391Z,19.10
2023-03-02T16:56:03.280Z,18.37
2023-03-02T16:58:29.871Z,19.57
2023-03-02T17:00:56.588Z,21.10
2023-03-02T17:03:23.245Z,19.80
2023-03-02T17:05:49.881Z,25.73
2023-03-02T17:08:16.870Z,45.07
2023-03-02T17:10:43.777Z,29.57
2023-03-02T17:13:12.100Z,24.47
2023-03-02T17:15:38.666Z,32.80
2023-03-02T17:18:05.281Z,24.83
2023-03-02T17:20:31.825Z,27.17
2023-03-02T17:22:58.318Z,23.47
2023-03-02T17:25:24.859Z,25.53
2023-03-02T17:27:51.456Z,24.00
2023-03-02T17:30:18.071Z,31.17
2023-03-02T17:32:44.696Z,25.70
2023-03-02T17:35:11.956Z,23.50
2023-03-02T17:37:38.493Z,22.67
2023-03-02T17:40:05.681Z,24.03
2023-03-02T17:42:32.652Z,23.87
2023-03-02T17:44:59.157Z,22.67
2023-03-02T17:47:25.767Z,24.90
2023-03-02T17:49:52.253Z,23.60
2023-03-02T17:52:19.178Z,22.70
2023-03-02T17:54:45.695Z,25.73
2023-03-02T17:57:12.511Z,23.20
2023-03-02T17:59:39.126Z,23.30
2023-03-02T18:02:05.673Z,21.77
2023-03-02T18:04:32.362Z,23.60
2023-03-02T18:06:58.987Z,23.40
2023-03-02T18:09:25.552Z,24.53
2023-03-02T18:11:52.147Z,23.93
2023-03-02T18:14:19.918Z,23.43
2023-03-02T18:16:46.841Z,24.03
2023-03-02T18:19:13.770Z,25.98
2023-03-02T18:21:41.844Z,25.33
2023-03-02T18:24:09.112Z,25.33
2023-03-02T18:26:35.644Z,24.40
2023-03-02T18:29:02.250Z,25.40
2023-03-02T18:31:29.068Z,25.30
2023-03-02T18:33:55.720Z,25.87
2023-03-02T18:36:22.245Z,24.77
2023-03-02T18:38:48.827Z,24.63
2023-03-02T18:41:15.352Z,23.63
2023-03-02T18:43:42.541Z,24.57
2023-03-02T18:46:17.657Z,24.87
2023-03-02T18:48:44.177Z,24.20
2023-03-02T18:51:10.699Z,24.57
2023-03-02T18:53:38.168Z,25.97
2023-03-02T18:56:04.805Z,25.20
2023-03-02T18:58:34.124Z,25.40
2023-03-02T19:01:01.245Z,26.37
2023-03-02T19:03:28.020Z,28.77
2023-03-02T19:05:57.644Z,27.43
2023-03-02T19:08:25.107Z,24.60
2023-03-02T19:10:51.961Z,24.17
2023-03-02T19:13:18.763Z,24.27
2023-03-02T19:15:45.373Z,26.03
2023-03-02T19:18:16.109Z,22.73
2023-03-02T19:20:44.578Z,25.87
2023-03-02T19:23:11.250Z,26.60
2023-03-02T19:25:38.716Z,27.17
2023-03-02T19:28:05.961Z,26.20
2023-03-02T19:30:34.029Z,26.40
2023-03-02T19:33:01.860Z,26.77
2023-03-02T19:35:29.509Z,28.80
2023-03-02T19:37:56.066Z,27.80
2023-03-02T19:40:24.661Z,28.77
2023-03-02T19:42:51.983Z,27.97
2023-03-02T19:45:27.293Z,29.60
2023-03-02T19:47:56.495Z,27.93
2023-03-02T19:50:24.925Z,30.43
2023-03-02T19:52:52.455Z,30.50
2023-03-02T19:55:20.154Z,30.47
2023-03-02T19:57:51.300Z,29.60
2023-03-02T20:00:19.337Z,28.03
2023-03-02T20:02:47.226Z,30.93
2023-03-02T20:05:13.874Z,31.17
2023-03-02T20:07:41.843Z,30.00
2023-03-02T20:10:09.436Z,29.43
2023-03-02T20:12:36.905Z,32.90
2023-03-02T20:15:04.713Z,32.80
2023-03-02T20:17:31.267Z,31.97
2023-03-02T20:19:58.562Z,32.37
2023-03-02T20:22:25.880Z,29.07
2023-03-02T20:24:52.433Z,26.97
2023-03-02T20:27:18.968Z,29.57
2023-03-02T20:29:45.621Z,30.63
2023-03-02T20:32:12.865Z,31.33
2023-03-02T20:34:41.034Z,31.77
2023-03-02T20:37:07.560Z,31.17
2023-03-02T20:39:35.529Z,31.03
2023-03-02T20:42:02.759Z,30.13
2023-03-02T20:44:31.113Z,33.00
2023-03-02T20:46:59.324Z,29.83
2023-03-02T20:49:27.181Z,34.50
2023-03-02T20:51:54.888Z,29.73
2023-03-02T20:54:32.504Z,37.53
2023-03-02T20:56:59.334Z,32.03
2023-03-02T20:59:26.989Z,34.80
2023-03-02T21:01:53.965Z,36.40
2023-03-02T21:04:20.654Z,29.97
2023-03-02T21:06:47.448Z,32.20
2023-03-02T21:09:14.516Z,33.17
2023-03-02T21:11:41.056Z,31.90
2023-03-02T21:14:07.728Z,32.13
2023-03-02T21:16:37.014Z,30.97
2023-03-02T21:19:05.544Z,30.33
2023-03-02T21:21:41.066Z,29.03
2023-03-02T21:24:09.894Z,33.10
2023-03-02T21:26:36.895Z,31.97
2023-03-02T21:29:05.134Z,27.43
2023-03-02T21:31:31.778Z,27.60
2023-03-02T21:33:58.297Z,29.00
2023-03-02T21:36:24.907Z,27.27
2023-03-02T21:38:51.850Z,25.87
2023-03-02T21:41:18.852Z,26.40
2023-03-02T21:43:45.471Z,27.10
2023-03-02T21:46:16.720Z,26.63
2023-03-02T21:48:43.905Z,29.20
2023-03-02T21:51:11.116Z,27.87
2023-03-02T21:53:37.794Z,26.77
2023-03-02T21:56:04.584Z,27.00
2023-03-02T21:58:31.116Z,25.50
2023-03-02T22:00:57.734Z,25.20
2023-03-02T22:03:24.287Z,23.53
2023-03-02T22:05:51.111Z,25.93
2023-03-02T22:08:18.426Z,24.10
2023-03-02T22:10:49.057Z,24.80
2023-03-02T22:13:17.406Z,23.83
2023-03-02T22:15:45.286Z,23.43
2023-03-02T22:18:16.500Z,25.10
2023-03-02T22:20:44.545Z,25.70
2023-03-02T22:23:21.718Z,23.17
2023-03-02T22:25:52.729Z,23.67
2023-03-02T22:28:23.748Z,22.47
2023-03-02T22:30:53.417Z,23.20
2023-03-02T22:33:21.219Z,23.27
2023-03-02T22:35:48.760Z,22.93
2023-03-02T22:38:25.539Z,22.90
2023-03-02T22:40:52.630Z,22.10
2023-03-02T22:43:25.657Z,22.03
2023-03-02T22:45:52.645Z,20.63
2023-03-02T22:48:20.824Z,22.93
2023-03-02T22:50:48.458Z,21.17
2023-03-02T22:53:28.799Z,19.80
2023-03-02T22:55:59.531Z,22.73
2023-03-02T22:58:38.084Z,22.67
2023-03-02T23:01:13.929Z,20.10
2023-03-02T23:03:43.231Z,19.37
2023-03-02T23:06:22.252Z,18.80
2023-03-02T23:08:48.757Z,20.97
2023-03-02T23:11:17.940Z,19.53
2023-03-02T23:13:44.638Z,21.00
2023-03-02T23:16:14.460Z,20.43
2023-03-02T23:18:43.065Z,21.23
2023-03-02T23:21:20.714Z,21.80
2023-03-02T23:23:47.654Z,20.93
2023-03-02T23:26:14.206Z,23.40
2023-03-02T23:28:40.782Z,22.00
2023-03-02T23:31:07.319Z,20.27
2023-03-02T23:33:33.882Z,19.60
2023-03-02T23:36:00.792Z,19.20
2023-03-02T23:38:27.528Z,19.97
2023-03-02T23:40:54.399Z,18.57
2023-03-02T23:43:20.996Z,18.20
2023-03-02T23:45:47.525Z,17.57
2023-03-02T23:48:14.026Z,17.40
2023-03-02T23:50:40.565Z,17.63
2023-03-02T23:53:07.143Z,17.13
2023-03-02T23:55:34.071Z,17.20
2023-03-02T23:58:00.728Z,18.33
